Chisholm Hibbing Airport Hibbing US
ICAO: KHIB
IATA: HIB
Category: Large
Scheduled Services: Yes

Elevation: 1354 ft
TransAlt. 18000 ft.

Airport Communications:
DULUTH APP/DEP:125.45
ASOS:126.425
DULUTH CLNC DEL:127.4
PRINCETON RDO:122.6
CTAF/UNICOM:123

KHIB Zoom In..

If you have problems with the map follow the link
https://www.worldairports.se/pages/airport.php?
ICAO=KHIB

Runways:

(A) RW 04 length 3075 ft width 75 ft
---- / hdg 47

(B) RW 13 length 6758 ft width 150 ft
ILS 110.50 / hdg 130

(C) RW 22 length 3075 ft width 75 ft
---- / hdg 227

(D) RW 31 length 6758 ft width 150 ft
ILS 109.50 / hdg 310

Location; KHIB
Day. 21 / Time. 20.53 Zulu
* Altimeter: 29.93
* Temperature: -07° c. -19.4°f.
* Wind from: 180° Speed 13 kn with Gusts up to 24 kn.
Dewpoint: -14° c.
Visibility: 9 Statute Miles.
Clouds: Clear (automated report).

KHIB 212053Z AUTO 18013G24KT 9SM CLR M07/M14 A2993 RMK AO2 SLP168 T10721144 56040


Wind From 180°
Speed 13 kn.

 
 
jpsmedia worldairports.se 2020   terms of use